createdAt,value
2023-02-05T00:00:02.000Z,98276
2023-02-05T00:05:02.000Z,98284
2023-02-05T00:10:02.000Z,98287
2023-02-05T00:15:02.000Z,98277
2023-02-05T00:20:02.000Z,98273
2023-02-05T00:25:02.000Z,98264
2023-02-05T00:30:02.000Z,98270
2023-02-05T00:35:02.000Z,98251
2023-02-05T00:40:02.000Z,98262
2023-02-05T00:45:02.000Z,98276
2023-02-05T00:50:02.000Z,98282
2023-02-05T00:55:02.000Z,98282
2023-02-05T01:00:02.000Z,98281
2023-02-05T01:05:02.000Z,98284
2023-02-05T01:10:02.000Z,98282
2023-02-05T01:15:02.000Z,98291
2023-02-05T01:20:02.000Z,98287
2023-02-05T01:25:02.000Z,98291
2023-02-05T01:30:02.000Z,98292
2023-02-05T01:35:02.000Z,98294
2023-02-05T01:40:02.000Z,98290
2023-02-05T01:45:02.000Z,98288
2023-02-05T01:50:02.000Z,98287
2023-02-05T01:55:02.000Z,98283
2023-02-05T02:00:02.000Z,98271
2023-02-05T02:05:02.000Z,98271
2023-02-05T02:10:02.000Z,98264
2023-02-05T02:15:02.000Z,98256
2023-02-05T02:20:02.000Z,98247
2023-02-05T02:25:02.000Z,98242
2023-02-05T02:30:02.000Z,98244
2023-02-05T02:35:02.000Z,98248
2023-02-05T02:40:02.000Z,98230
2023-02-05T02:45:02.000Z,98222
2023-02-05T02:50:02.000Z,98219
2023-02-05T02:55:02.000Z,98213
2023-02-05T03:00:02.000Z,98222
2023-02-05T03:05:02.000Z,98225
2023-02-05T03:10:02.000Z,98225
2023-02-05T03:15:02.000Z,98207
2023-02-05T03:20:02.000Z,98209
2023-02-05T03:25:02.000Z,98204
2023-02-05T03:30:02.000Z,98200
2023-02-05T03:35:02.000Z,98208
2023-02-05T03:40:02.000Z,98198
2023-02-05T03:45:02.000Z,98199
2023-02-05T03:50:02.000Z,98196
2023-02-05T03:55:02.000Z,98198
2023-02-05T04:00:02.000Z,98176
2023-02-05T04:05:02.000Z,98176
2023-02-05T04:10:02.000Z,98181
2023-02-05T04:15:02.000Z,98182
2023-02-05T04:20:02.000Z,98187
2023-02-05T04:25:02.000Z,98196
2023-02-05T04:30:02.000Z,98188
2023-02-05T04:35:02.000Z,98181
2023-02-05T04:40:02.000Z,98172
2023-02-05T04:45:02.000Z,98167
2023-02-05T04:50:02.000Z,98173
2023-02-05T04:55:02.000Z,98189
2023-02-05T05:00:02.000Z,98195
2023-02-05T05:05:02.000Z,98176
2023-02-05T05:10:02.000Z,98186
2023-02-05T05:15:02.000Z,98176
2023-02-05T05:20:02.000Z,98196
2023-02-05T05:25:02.000Z,98206
2023-02-05T05:30:02.000Z,98199
2023-02-05T05:35:02.000Z,98202
2023-02-05T05:40:02.000Z,98196
2023-02-05T05:45:02.000Z,98208
2023-02-05T05:50:02.000Z,98199
2023-02-05T05:55:02.000Z,98212
2023-02-05T06:00:02.000Z,98211
2023-02-05T06:05:02.000Z,98226
2023-02-05T06:10:02.000Z,98238
2023-02-05T06:15:02.000Z,98239
2023-02-05T06:20:02.000Z,98228
2023-02-05T06:25:02.000Z,98255
2023-02-05T06:30:02.000Z,98251
2023-02-05T06:35:02.000Z,98269
2023-02-05T06:40:02.000Z,98255
2023-02-05T06:45:02.000Z,98271
2023-02-05T06:50:02.000Z,98266
2023-02-05T06:55:02.000Z,98276
2023-02-05T07:00:02.000Z,98287
2023-02-05T07:05:02.000Z,98296
2023-02-05T07:10:02.000Z,98296
2023-02-05T07:15:02.000Z,98308
2023-02-05T07:20:02.000Z,98297
2023-02-05T07:25:02.000Z,98308
2023-02-05T07:30:02.000Z,98311
2023-02-05T07:35:02.000Z,98316
2023-02-05T07:40:02.000Z,98320
2023-02-05T07:45:02.000Z,98334
2023-02-05T07:50:02.000Z,98327
2023-02-05T07:55:02.000Z,98334
2023-02-05T08:00:02.000Z,98327
2023-02-05T08:05:02.000Z,98334
2023-02-05T08:10:02.000Z,98344
2023-02-05T08:15:02.000Z,98328
2023-02-05T08:20:02.000Z,98318
2023-02-05T08:25:02.000Z,98324
2023-02-05T08:30:02.000Z,98347
2023-02-05T08:35:02.000Z,98350
2023-02-05T08:40:02.000Z,98343
2023-02-05T08:45:02.000Z,98339
2023-02-05T08:50:02.000Z,98328
2023-02-05T08:55:02.000Z,98324
2023-02-05T09:00:02.000Z,98304
2023-02-05T09:05:02.000Z,98286
2023-02-05T09:10:02.000Z,98290
2023-02-05T09:15:02.000Z,98287
2023-02-05T09:20:02.000Z,98277
2023-02-05T09:25:02.000Z,98278
2023-02-05T09:30:02.000Z,98274
2023-02-05T09:35:02.000Z,98268
2023-02-05T09:40:02.000Z,98273
2023-02-05T09:45:02.000Z,98284
2023-02-05T09:50:02.000Z,98267
2023-02-05T09:55:02.000Z,98269
2023-02-05T10:00:02.000Z,98265
2023-02-05T10:05:02.000Z,98268
2023-02-05T10:10:02.000Z,98259
2023-02-05T10:15:02.000Z,98252
2023-02-05T10:20:02.000Z,98259
2023-02-05T10:25:02.000Z,98239
2023-02-05T10:30:02.000Z,98233
2023-02-05T10:35:02.000Z,98217
2023-02-05T10:40:02.000Z,98208
2023-02-05T10:45:02.000Z,98196
2023-02-05T10:50:02.000Z,98200
2023-02-05T10:55:02.000Z,98191
2023-02-05T11:00:02.000Z,98188
2023-02-05T11:05:02.000Z,98176
2023-02-05T11:10:02.000Z,98165
2023-02-05T11:15:02.000Z,98173
2023-02-05T11:20:02.000Z,98163
2023-02-05T11:25:02.000Z,98164
2023-02-05T11:30:02.000Z,98169
2023-02-05T11:35:02.000Z,98150
2023-02-05T11:40:02.000Z,98149
2023-02-05T11:45:02.000Z,98139
2023-02-05T11:50:02.000Z,98139
2023-02-05T11:55:02.000Z,98135
2023-02-05T12:00:02.000Z,98141
2023-02-05T12:05:02.000Z,98146
2023-02-05T12:10:02.000Z,98133
2023-02-05T12:15:02.000Z,98131
2023-02-05T12:20:02.000Z,98121
2023-02-05T12:25:02.000Z,98130
2023-02-05T12:30:02.000Z,98119
2023-02-05T12:35:02.000Z,98117
2023-02-05T12:40:02.000Z,98119
2023-02-05T12:45:02.000Z,98120
2023-02-05T12:50:02.000Z,98104
2023-02-05T12:55:02.000Z,98100
2023-02-05T13:00:02.000Z,98104
2023-02-05T13:05:02.000Z,98086
2023-02-05T13:10:02.000Z,98068
2023-02-05T13:15:02.000Z,98072
2023-02-05T13:20:02.000Z,98065
2023-02-05T13:25:02.000Z,98060
2023-02-05T13:30:02.000Z,98034
2023-02-05T13:35:02.000Z,98032
2023-02-05T13:40:02.000Z,98040
2023-02-05T13:45:02.000Z,98039
2023-02-05T13:50:02.000Z,98014
2023-02-05T13:55:02.000Z,98000
2023-02-05T14:00:02.000Z,97987
2023-02-05T14:05:02.000Z,97990
2023-02-05T14:10:02.000Z,97976
2023-02-05T14:15:02.000Z,97964
2023-02-05T14:20:02.000Z,97970
2023-02-05T14:25:02.000Z,97966
2023-02-05T14:30:02.000Z,97971
2023-02-05T14:35:02.000Z,97974
2023-02-05T14:40:02.000Z,97955
2023-02-05T14:45:02.000Z,97942
2023-02-05T14:50:02.000Z,97940
2023-02-05T14:55:02.000Z,97936
2023-02-05T15:00:02.000Z,97933
2023-02-05T15:05:02.000Z,97920
2023-02-05T15:10:02.000Z,97913
2023-02-05T15:15:02.000Z,97904
2023-02-05T15:20:02.000Z,97908
2023-02-05T15:25:02.000Z,97891
2023-02-05T15:30:02.000Z,97900
2023-02-05T15:35:02.000Z,97904
2023-02-05T15:40:02.000Z,97894
2023-02-05T15:45:02.000Z,97906
2023-02-05T15:50:02.000Z,97900
2023-02-05T15:55:02.000Z,97908
2023-02-05T16:00:02.000Z,97911
2023-02-05T16:05:02.000Z,97910
2023-02-05T16:10:02.000Z,97914
2023-02-05T16:15:02.000Z,97917
2023-02-05T16:20:02.000Z,97909
2023-02-05T16:25:02.000Z,97911
2023-02-05T16:30:02.000Z,97930
2023-02-05T16:35:02.000Z,97933
2023-02-05T16:40:02.000Z,97932
2023-02-05T16:45:02.000Z,97932
2023-02-05T16:50:02.000Z,97923
2023-02-05T16:55:02.000Z,97940
2023-02-05T17:00:02.000Z,97929
2023-02-05T17:05:02.000Z,97940
2023-02-05T17:10:02.000Z,97928
2023-02-05T17:15:02.000Z,97938
2023-02-05T17:20:02.000Z,97941
2023-02-05T17:25:02.000Z,97934
2023-02-05T17:30:02.000Z,97946
2023-02-05T17:35:02.000Z,97933
2023-02-05T17:40:02.000Z,97943
2023-02-05T17:45:02.000Z,97940
2023-02-05T17:50:02.000Z,97939
2023-02-05T17:55:02.000Z,97950
2023-02-05T18:00:02.000Z,97960
2023-02-05T18:05:03.000Z,97963
2023-02-05T18:10:03.000Z,97961
2023-02-05T18:15:03.000Z,97962
2023-02-05T18:20:03.000Z,97960
2023-02-05T18:25:03.000Z,97956
2023-02-05T18:30:03.000Z,97967
2023-02-05T18:35:03.000Z,97967
2023-02-05T18:40:03.000Z,97970
2023-02-05T18:45:03.000Z,97977
2023-02-05T18:50:03.000Z,97980
2023-02-05T18:55:03.000Z,97966
2023-02-05T19:00:03.000Z,97969
2023-02-05T19:05:03.000Z,97983
2023-02-05T19:10:03.000Z,97962
2023-02-05T19:15:03.000Z,97972
2023-02-05T19:20:03.000Z,97982
2023-02-05T19:25:03.000Z,97978
2023-02-05T19:30:03.000Z,97983
2023-02-05T19:35:03.000Z,97975
2023-02-05T19:40:03.000Z,97984
2023-02-05T19:45:03.000Z,97995
2023-02-05T19:50:03.000Z,98000
2023-02-05T19:55:03.000Z,98004
2023-02-05T20:00:03.000Z,98014
2023-02-05T20:05:03.000Z,98010
2023-02-05T20:10:03.000Z,98006
2023-02-05T20:15:03.000Z,98000
2023-02-05T20:20:03.000Z,98020
2023-02-05T20:25:03.000Z,98026
2023-02-05T20:30:03.000Z,98026
2023-02-05T20:35:03.000Z,98036
2023-02-05T20:40:03.000Z,98033
2023-02-05T20:45:03.000Z,98038
2023-02-05T20:50:03.000Z,98042
2023-02-05T20:55:03.000Z,98049
2023-02-05T21:00:03.000Z,98071
2023-02-05T21:05:03.000Z,98080
2023-02-05T21:10:03.000Z,98087
2023-02-05T21:15:03.000Z,98089
2023-02-05T21:20:03.000Z,98091
2023-02-05T21:25:03.000Z,98102
2023-02-05T21:30:03.000Z,98111
2023-02-05T21:35:03.000Z,98100
2023-02-05T21:40:03.000Z,98105
2023-02-05T21:45:03.000Z,98120
2023-02-05T21:50:03.000Z,98123
2023-02-05T21:55:03.000Z,98131
2023-02-05T22:00:03.000Z,98130
2023-02-05T22:05:03.000Z,98130
2023-02-05T22:10:03.000Z,98126
2023-02-05T22:15:03.000Z,98129
2023-02-05T22:20:03.000Z,98138
2023-02-05T22:25:03.000Z,98144
2023-02-05T22:30:03.000Z,98152
2023-02-05T22:35:03.000Z,98160
2023-02-05T22:40:03.000Z,98165
2023-02-05T22:45:03.000Z,98170
2023-02-05T22:50:03.000Z,98176
2023-02-05T22:55:03.000Z,98184
2023-02-05T23:00:03.000Z,98182
2023-02-05T23:05:03.000Z,98197
2023-02-05T23:10:03.000Z,98200
2023-02-05T23:15:03.000Z,98193
2023-02-05T23:20:03.000Z,98190
2023-02-05T23:25:03.000Z,98204
2023-02-05T23:30:03.000Z,98203
2023-02-05T23:35:03.000Z,98223
2023-02-05T23:40:03.000Z,98222
2023-02-05T23:45:03.000Z,98214
2023-02-05T23:50:03.000Z,98225
2023-02-05T23:55:03.000Z,98227
